Castlegar, Canada
Current Conditions -  °F | °C
As of 11:00 AM on Friday 31 Oct 2014 (Local Time) from CYCG Reporting Station
Light Rain Light Rain  
Wind Chill: 48°   Ceiling: 5500
Heat Index: 48°   Visibility: 10mi
Dew Point: 48°   Wind: 0mph
Humidity: 100%   Direction: NA
Pressure: 29.75"   Gusts: NA
Location:  49.3°N, 117.65°W
Report Text: CYCG 311800Z 00000KT 10SM -RA FEW003 SCT018 OVC055 09/09 A2975 RMK SF2SC2SC4 SLP081
Loading
Personal Weather Stations






























Interactive Weather Map
Tropical Storm Tracking
New forecast layout! Learn more

10-Day Weather Forecast

Advertisements
Track Severe Weather on mobile